createdAt,value
2019-03-15T00:00:53.570Z,954.86
2019-03-15T00:01:53.512Z,954.81
2019-03-15T00:02:53.457Z,954.84
2019-03-15T00:03:53.407Z,954.82
2019-03-15T00:04:53.374Z,954.89
2019-03-15T00:05:53.317Z,954.86
2019-03-15T00:06:53.229Z,954.87
2019-03-15T00:07:53.171Z,954.82
2019-03-15T00:08:53.127Z,954.77
2019-03-15T00:09:53.088Z,954.73
2019-03-15T00:10:53.000Z,954.77
2019-03-15T00:11:52.942Z,954.85
2019-03-15T00:12:52.885Z,954.89
2019-03-15T00:13:52.831Z,954.87
2019-03-15T00:14:52.797Z,954.93
2019-03-15T00:15:52.720Z,954.91
2019-03-15T00:16:52.657Z,954.95
2019-03-15T00:17:52.634Z,955.03
2019-03-15T00:18:52.545Z,955.01
2019-03-15T00:19:52.494Z,955.00
2019-03-15T00:20:52.429Z,955.09
2019-03-15T00:21:52.372Z,955.05
2019-03-15T00:22:52.358Z,955.11
2019-03-15T00:23:52.260Z,955.18
2019-03-15T00:24:52.201Z,955.12
2019-03-15T00:25:55.138Z,955.14
2019-03-15T00:26:52.089Z,955.19
2019-03-15T00:27:52.074Z,955.17
2019-03-15T00:28:51.974Z,955.17
2019-03-15T00:29:51.923Z,955.15
2019-03-15T00:30:51.859Z,955.19
2019-03-15T00:31:51.835Z,955.25
2019-03-15T00:32:51.746Z,955.26
2019-03-15T00:33:51.692Z,955.28
2019-03-15T00:34:51.633Z,955.23
2019-03-15T00:35:51.583Z,955.24
2019-03-15T00:36:51.551Z,955.28
2019-03-15T00:37:51.492Z,955.33
2019-03-15T00:38:51.404Z,955.31
2019-03-15T00:39:51.347Z,955.32
2019-03-15T00:40:51.296Z,955.38
2019-03-15T00:41:51.265Z,955.38
2019-03-15T00:42:51.172Z,955.42
2019-03-15T00:43:51.156Z,955.41
2019-03-15T00:44:51.093Z,955.37
2019-03-15T00:45:51.004Z,955.35
2019-03-15T00:46:50.950Z,955.33
2019-03-15T00:47:50.895Z,955.37
2019-03-15T00:48:50.863Z,955.46
2019-03-15T00:49:50.774Z,955.43
2019-03-15T00:50:50.751Z,955.49
2019-03-15T00:51:50.662Z,955.51
2019-03-15T00:52:50.601Z,955.53
2019-03-15T00:53:53.947Z,955.49
2019-03-15T00:54:50.501Z,955.51
2019-03-15T00:55:50.431Z,955.50
2019-03-15T00:56:50.374Z,955.51
2019-03-15T00:57:50.347Z,955.53
2019-03-15T00:58:50.259Z,955.56
2019-03-15T00:59:50.234Z,955.57
2019-03-15T01:00:50.149Z,955.58
2019-03-15T01:01:50.087Z,955.57
2019-03-15T01:02:50.139Z,955.59
2019-03-15T01:03:49.979Z,955.55
2019-03-15T01:04:49.951Z,955.56
2019-03-15T01:05:49.863Z,955.54
2019-03-15T01:06:49.802Z,955.55
2019-03-15T01:07:49.790Z,955.54
2019-03-15T01:08:49.690Z,955.52
2019-03-15T01:09:49.631Z,955.54
2019-03-15T01:10:49.573Z,955.47
2019-03-15T01:11:49.515Z,955.52
2019-03-15T01:12:49.490Z,955.62
2019-03-15T01:13:49.400Z,955.60
2019-03-15T01:14:49.344Z,955.65
2019-03-15T01:15:49.314Z,955.62
2019-03-15T01:16:49.236Z,955.63
2019-03-15T01:17:49.214Z,955.59
2019-03-15T01:18:49.125Z,955.66
2019-03-15T01:19:49.060Z,955.57
2019-03-15T01:20:49.003Z,955.53
2019-03-15T01:21:48.947Z,955.66
2019-03-15T01:22:48.920Z,955.66
2019-03-15T01:23:48.833Z,955.62
2019-03-15T01:24:48.775Z,955.67
2019-03-15T01:25:48.720Z,955.71
2019-03-15T01:26:48.665Z,955.68
2019-03-15T01:27:48.643Z,955.67
2019-03-15T01:28:48.544Z,955.72
2019-03-15T01:29:48.489Z,955.77
2019-03-15T01:30:48.437Z,955.77
2019-03-15T01:31:48.376Z,955.75
2019-03-15T01:32:48.340Z,955.77
2019-03-15T01:33:48.259Z,955.81
2019-03-15T01:34:48.209Z,955.85
2019-03-15T01:35:48.238Z,955.83
2019-03-15T01:36:48.091Z,955.83
2019-03-15T01:37:48.063Z,955.94
2019-03-15T01:38:47.977Z,955.93
2019-03-15T01:39:47.917Z,955.93
2019-03-15T01:40:48.978Z,955.89
2019-03-15T01:41:47.802Z,955.89
2019-03-15T01:42:48.043Z,955.86
2019-03-15T01:43:47.689Z,955.87
2019-03-15T01:44:47.632Z,955.94
2019-03-15T01:45:47.626Z,955.89
2019-03-15T01:46:47.518Z,955.93
2019-03-15T01:47:47.459Z,955.94
2019-03-15T01:48:47.409Z,955.97
2019-03-15T01:49:47.346Z,955.97
2019-03-15T01:50:47.328Z,955.96
2019-03-15T01:51:47.230Z,955.99
2019-03-15T01:52:47.230Z,955.99
2019-03-15T01:53:47.122Z,955.97
2019-03-15T01:54:47.062Z,955.98
2019-03-15T01:55:47.015Z,955.95
2019-03-15T01:56:46.951Z,955.97
2019-03-15T01:57:47.007Z,955.99
2019-03-15T01:58:46.833Z,955.95
2019-03-15T01:59:46.776Z,955.99
2019-03-15T02:00:46.719Z,956.02
2019-03-15T02:01:46.660Z,956.03
2019-03-15T02:02:46.640Z,956.00
2019-03-15T02:03:46.543Z,956.02
2019-03-15T02:04:46.496Z,956.02
2019-03-15T02:05:46.431Z,955.99
2019-03-15T02:06:46.407Z,956.00
2019-03-15T02:07:46.315Z,956.01
2019-03-15T02:08:46.265Z,956.03
2019-03-15T02:09:46.258Z,956.03
2019-03-15T02:10:46.144Z,956.04
2019-03-15T02:11:46.088Z,956.03
2019-03-15T02:12:46.032Z,955.96
2019-03-15T02:13:45.976Z,955.98
2019-03-15T02:14:45.949Z,955.92
2019-03-15T02:15:45.861Z,955.89
2019-03-15T02:16:45.802Z,955.95
2019-03-15T02:17:45.782Z,955.90
2019-03-15T02:18:45.719Z,955.87
2019-03-15T02:19:45.634Z,955.88
2019-03-15T02:20:45.577Z,955.91
2019-03-15T02:21:45.519Z,955.98
2019-03-15T02:22:45.460Z,956.00
2019-03-15T02:23:45.438Z,955.89
2019-03-15T02:24:45.353Z,955.99
2019-03-15T02:25:45.326Z,955.95
2019-03-15T02:26:45.231Z,955.78
2019-03-15T02:27:45.177Z,955.91
2019-03-15T02:28:45.119Z,955.93
2019-03-15T02:29:45.060Z,956.00
2019-03-15T02:30:45.042Z,955.94
2019-03-15T02:31:44.948Z,955.87
2019-03-15T02:32:44.890Z,955.92
2019-03-15T02:33:44.837Z,955.93
2019-03-15T02:34:44.776Z,955.83
2019-03-15T02:35:44.755Z,955.87
2019-03-15T02:36:44.665Z,955.82
2019-03-15T02:37:44.652Z,955.80
2019-03-15T02:38:44.549Z,955.85
2019-03-15T02:39:46.150Z,955.84
2019-03-15T02:40:44.442Z,955.83
2019-03-15T02:41:44.409Z,955.80
2019-03-15T02:42:44.319Z,955.87
2019-03-15T02:43:44.271Z,955.76
2019-03-15T02:44:44.244Z,955.78
2019-03-15T02:45:44.153Z,955.75
2019-03-15T02:46:44.124Z,955.82
2019-03-15T02:47:44.039Z,955.84
2019-03-15T02:48:43.986Z,955.80
2019-03-15T02:49:43.924Z,955.63
2019-03-15T02:50:43.906Z,955.65
2019-03-15T02:51:43.808Z,955.78
2019-03-15T02:52:43.750Z,955.79
2019-03-15T02:53:43.694Z,955.84
2019-03-15T02:54:43.641Z,955.86
2019-03-15T02:55:43.613Z,955.84
2019-03-15T02:56:43.533Z,955.87
2019-03-15T02:57:43.470Z,955.92
2019-03-15T02:58:43.411Z,955.84
2019-03-15T02:59:43.384Z,955.86
2019-03-15T03:00:43.332Z,955.88
2019-03-15T03:01:43.238Z,955.88
2019-03-15T03:02:43.197Z,955.89
2019-03-15T03:03:43.157Z,955.94
2019-03-15T03:04:43.067Z,955.94
2019-03-15T03:05:43.008Z,955.98
2019-03-15T03:06:42.967Z,955.95
2019-03-15T03:07:42.898Z,955.96
2019-03-15T03:08:42.872Z,955.89
2019-03-15T03:09:42.782Z,955.79
2019-03-15T03:10:42.723Z,955.73
2019-03-15T03:11:42.667Z,955.73
2019-03-15T03:12:43.971Z,955.81
2019-03-15T03:13:42.563Z,955.91
2019-03-15T03:14:42.494Z,955.96
2019-03-15T03:15:42.454Z,955.97
2019-03-15T03:16:42.383Z,956.06
2019-03-15T03:17:42.358Z,956.03
2019-03-15T03:18:42.266Z,956.02
2019-03-15T03:19:42.214Z,956.07
2019-03-15T03:20:42.158Z,956.01
2019-03-15T03:21:42.341Z,956.04
2019-03-15T03:22:42.094Z,956.09
2019-03-15T03:23:41.989Z,956.09
2019-03-15T03:24:41.930Z,956.11
2019-03-15T03:25:41.870Z,956.20
2019-03-15T03:26:41.851Z,956.15
2019-03-15T03:27:41.941Z,956.19
2019-03-15T03:28:41.731Z,956.16
2019-03-15T03:29:41.672Z,956.12
2019-03-15T03:30:41.586Z,956.10
2019-03-15T03:31:43.254Z,956.12
2019-03-15T03:32:44.113Z,956.15
2019-03-15T03:33:42.052Z,956.12
2019-03-15T03:34:41.383Z,956.14
2019-03-15T03:35:41.300Z,956.29
2019-03-15T03:36:41.268Z,956.14
2019-03-15T03:37:41.186Z,956.21
2019-03-15T03:38:41.169Z,956.13
2019-03-15T03:39:41.081Z,956.20
2019-03-15T03:40:41.064Z,956.17
2019-03-15T03:41:40.969Z,956.28
2019-03-15T03:42:40.904Z,956.25
2019-03-15T03:43:40.845Z,956.26
2019-03-15T03:44:40.859Z,956.34
2019-03-15T03:45:40.736Z,956.26
2019-03-15T03:46:40.671Z,956.25
2019-03-15T03:47:40.619Z,956.31
2019-03-15T03:48:40.567Z,956.34
2019-03-15T03:49:40.543Z,956.39
2019-03-15T03:50:40.445Z,956.26
2019-03-15T03:51:40.432Z,956.37
2019-03-15T03:52:41.687Z,956.28
2019-03-15T03:53:40.275Z,956.34
2019-03-15T03:54:40.217Z,956.39
2019-03-15T03:55:40.162Z,956.40
2019-03-15T03:56:40.138Z,956.35
2019-03-15T03:57:40.046Z,956.38
2019-03-15T03:58:39.992Z,956.35
2019-03-15T03:59:39.941Z,956.26
2019-03-15T04:00:39.908Z,956.26
2019-03-15T04:01:39.851Z,956.20
2019-03-15T04:02:39.763Z,956.23
2019-03-15T04:03:39.708Z,956.34
2019-03-15T04:04:39.648Z,956.42
2019-03-15T04:05:39.591Z,956.36
2019-03-15T04:06:39.566Z,956.32
2019-03-15T04:07:39.476Z,956.39
2019-03-15T04:08:39.419Z,956.33
2019-03-15T04:09:39.365Z,956.39
2019-03-15T04:10:39.360Z,956.43
2019-03-15T04:11:39.279Z,956.42
2019-03-15T04:12:39.193Z,956.53
2019-03-15T04:13:39.137Z,956.39
2019-03-15T04:14:39.105Z,956.39
2019-03-15T04:15:39.020Z,956.40
2019-03-15T04:16:38.963Z,956.49
2019-03-15T04:17:38.908Z,956.49
2019-03-15T04:18:38.851Z,956.44
2019-03-15T04:19:38.824Z,956.46
2019-03-15T04:20:38.737Z,956.44
2019-03-15T04:21:38.680Z,956.44
2019-03-15T04:22:38.620Z,956.49
2019-03-15T04:23:38.893Z,956.48
2019-03-15T04:24:38.508Z,956.46
2019-03-15T04:25:40.505Z,956.46
2019-03-15T04:26:38.432Z,956.40
2019-03-15T04:27:38.337Z,956.44
2019-03-15T04:28:38.282Z,956.47
2019-03-15T04:29:38.224Z,956.41
2019-03-15T04:30:38.167Z,956.46
2019-03-15T04:31:38.147Z,956.45
2019-03-15T04:32:38.051Z,956.45
2019-03-15T04:33:37.996Z,956.45
2019-03-15T04:34:37.938Z,956.39
2019-03-15T04:35:37.882Z,956.38
2019-03-15T04:36:37.858Z,956.29
2019-03-15T04:37:37.775Z,956.36
2019-03-15T04:38:37.712Z,956.38
2019-03-15T04:39:37.652Z,956.40
2019-03-15T04:40:37.628Z,956.35
2019-03-15T04:41:37.539Z,956.42
2019-03-15T04:42:37.511Z,956.30
2019-03-15T04:43:37.423Z,956.30
2019-03-15T04:44:37.368Z,956.32
2019-03-15T04:45:37.359Z,956.39
2019-03-15T04:46:37.258Z,956.32
2019-03-15T04:47:37.209Z,956.25
2019-03-15T04:48:37.139Z,956.33
2019-03-15T04:49:37.084Z,956.31
2019-03-15T04:50:37.058Z,956.37
2019-03-15T04:51:36.971Z,956.46
2019-03-15T04:52:36.912Z,956.46
2019-03-15T04:53:36.879Z,956.36
2019-03-15T04:54:36.801Z,956.37
2019-03-15T04:55:36.743Z,956.39
2019-03-15T04:56:36.702Z,956.51
2019-03-15T04:57:36.663Z,956.49
2019-03-15T04:58:36.599Z,956.44
2019-03-15T04:59:36.512Z,956.42
2019-03-15T05:00:36.456Z,956.36
2019-03-15T05:01:36.408Z,956.45
2019-03-15T05:02:36.342Z,956.46
2019-03-15T05:03:36.323Z,956.48
2019-03-15T05:04:36.231Z,956.47
2019-03-15T05:05:36.170Z,956.42
2019-03-15T05:06:36.114Z,956.49
2019-03-15T05:07:36.061Z,956.50
2019-03-15T05:08:36.032Z,956.53
2019-03-15T05:09:35.951Z,956.57
2019-03-15T05:10:35.886Z,956.53
2019-03-15T05:11:35.848Z,956.57
2019-03-15T05:12:35.806Z,956.50
2019-03-15T05:13:35.716Z,956.57
2019-03-15T05:14:35.658Z,956.59
2019-03-15T05:15:35.600Z,956.53
2019-03-15T05:16:35.544Z,956.48
2019-03-15T05:17:35.526Z,956.50
2019-03-15T05:18:35.431Z,956.50
2019-03-15T05:19:35.373Z,956.53
2019-03-15T05:20:35.315Z,956.56
2019-03-15T05:21:35.259Z,956.51
2019-03-15T05:22:35.236Z,956.52
2019-03-15T05:23:35.176Z,956.47
2019-03-15T05:24:35.130Z,956.49
2019-03-15T05:25:35.030Z,956.40
2019-03-15T05:26:34.998Z,956.48
2019-03-15T05:27:34.937Z,956.46
2019-03-15T05:28:34.894Z,956.42
2019-03-15T05:29:34.803Z,956.42
2019-03-15T05:30:34.744Z,956.39
2019-03-15T05:31:34.690Z,956.39
2019-03-15T05:32:34.648Z,956.37
2019-03-15T05:33:34.754Z,956.34
2019-03-15T05:34:34.527Z,956.35
2019-03-15T05:35:34.461Z,956.37
2019-03-15T05:36:34.404Z,956.32
2019-03-15T05:37:34.346Z,956.33
2019-03-15T05:38:35.054Z,956.26
2019-03-15T05:39:34.232Z,956.34
2019-03-15T05:40:34.177Z,956.32
2019-03-15T05:41:34.119Z,956.38
2019-03-15T05:42:34.063Z,956.36
2019-03-15T05:43:34.042Z,956.34
2019-03-15T05:44:33.951Z,956.30
2019-03-15T05:45:33.922Z,956.38
2019-03-15T05:46:33.835Z,956.43
2019-03-15T05:47:33.791Z,956.48
2019-03-15T05:48:33.721Z,956.49
2019-03-15T05:49:33.665Z,956.57
2019-03-15T05:50:33.656Z,956.51
2019-03-15T05:51:33.636Z,956.63
2019-03-15T05:52:33.491Z,956.56
2019-03-15T05:53:33.439Z,956.61
2019-03-15T05:54:33.379Z,956.58
2019-03-15T05:55:33.360Z,956.63
2019-03-15T05:56:33.266Z,956.54
2019-03-15T05:57:33.240Z,956.59
2019-03-15T05:58:33.149Z,956.54
2019-03-15T05:59:33.091Z,956.53
2019-03-15T06:00:33.042Z,956.57
2019-03-15T06:01:33.012Z,956.62
2019-03-15T06:02:32.923Z,956.62
2019-03-15T06:03:32.869Z,956.61
2019-03-15T06:04:32.809Z,956.64
2019-03-15T06:05:32.751Z,956.61
2019-03-15T06:06:32.731Z,956.60
2019-03-15T06:07:32.639Z,956.64
2019-03-15T06:08:32.581Z,956.67
2019-03-15T06:09:32.523Z,956.52
2019-03-15T06:10:32.469Z,956.60
2019-03-15T06:11:32.444Z,956.60
2019-03-15T06:12:32.352Z,956.64
2019-03-15T06:13:32.301Z,956.53
2019-03-15T06:14:32.239Z,956.59
2019-03-15T06:15:32.181Z,956.62
2019-03-15T06:16:32.187Z,956.61
2019-03-15T06:17:32.072Z,956.52
2019-03-15T06:18:32.013Z,956.55
2019-03-15T06:19:31.952Z,956.58
2019-03-15T06:20:31.896Z,956.61
2019-03-15T06:21:31.878Z,956.63
2019-03-15T06:22:31.784Z,956.57
2019-03-15T06:23:31.762Z,956.67
2019-03-15T06:24:31.668Z,956.60
2019-03-15T06:25:31.611Z,956.57
2019-03-15T06:26:31.562Z,956.54
2019-03-15T06:27:31.499Z,956.57
2019-03-15T06:28:31.475Z,956.55
2019-03-15T06:29:32.024Z,956.55
2019-03-15T06:30:31.330Z,956.60
2019-03-15T06:31:31.270Z,956.59
2019-03-15T06:32:31.212Z,956.65
2019-03-15T06:33:31.191Z,956.67
2019-03-15T06:34:31.099Z,956.57
2019-03-15T06:35:31.075Z,956.59
2019-03-15T06:36:30.995Z,956.63
2019-03-15T06:37:30.931Z,956.54
2019-03-15T06:38:33.436Z,956.54
2019-03-15T06:39:30.820Z,956.54
2019-03-15T06:40:30.790Z,956.51
2019-03-15T06:41:30.702Z,956.51
2019-03-15T06:42:30.652Z,956.47
2019-03-15T06:43:30.628Z,956.51
2019-03-15T06:44:30.533Z,956.46
2019-03-15T06:45:31.943Z,956.44
2019-03-15T06:46:30.423Z,956.47
2019-03-15T06:47:30.359Z,956.45
2019-03-15T06:48:30.337Z,956.48
2019-03-15T06:49:30.245Z,956.48
2019-03-15T06:50:30.228Z,956.53
2019-03-15T06:51:30.134Z,956.41
2019-03-15T06:52:30.080Z,956.44
2019-03-15T06:53:30.054Z,956.37
2019-03-15T06:54:29.965Z,956.36
2019-03-15T06:55:29.955Z,956.36
2019-03-15T06:56:29.935Z,956.36
2019-03-15T06:57:29.791Z,956.31
2019-03-15T06:58:29.738Z,956.36
2019-03-15T06:59:29.713Z,956.18
2019-03-15T07:00:29.624Z,956.18
2019-03-15T07:01:29.564Z,956.23
2019-03-15T07:02:29.560Z,956.20
2019-03-15T07:03:29.449Z,956.18
2019-03-15T07:04:29.399Z,956.09
2019-03-15T07:05:29.339Z,956.16
2019-03-15T07:06:29.278Z,956.18
2019-03-15T07:07:29.254Z,956.14
2019-03-15T07:08:29.168Z,956.10
2019-03-15T07:09:30.912Z,956.07
2019-03-15T07:10:29.082Z,956.10
2019-03-15T07:11:28.995Z,956.07
2019-03-15T07:12:28.938Z,956.08
2019-03-15T07:13:28.883Z,956.06
2019-03-15T07:14:28.825Z,956.09
2019-03-15T07:15:28.798Z,956.07
2019-03-15T07:16:28.712Z,956.06
2019-03-15T07:17:28.694Z,956.03
2019-03-15T07:18:28.931Z,956.06
2019-03-15T07:19:30.497Z,956.04
2019-03-15T07:20:28.491Z,955.99
2019-03-15T07:21:28.426Z,956.09
2019-03-15T07:22:28.409Z,955.90
2019-03-15T07:23:28.323Z,955.96
2019-03-15T07:24:28.258Z,955.98
2019-03-15T07:25:28.234Z,956.05
2019-03-15T07:26:28.144Z,956.00
2019-03-15T07:27:28.086Z,955.99
2019-03-15T07:28:28.034Z,955.93
2019-03-15T07:29:28.004Z,955.95
2019-03-15T07:30:27.915Z,955.88
2019-03-15T07:31:27.863Z,955.90
2019-03-15T07:32:27.805Z,955.94
2019-03-15T07:33:27.744Z,955.85
2019-03-15T07:34:27.729Z,955.89
2019-03-15T07:35:27.638Z,955.87
2019-03-15T07:36:27.578Z,955.88
2019-03-15T07:37:27.521Z,955.82
2019-03-15T07:38:27.464Z,955.77
2019-03-15T07:39:27.443Z,955.85
2019-03-15T07:40:27.350Z,955.79
2019-03-15T07:41:27.327Z,955.81
2019-03-15T07:42:27.239Z,955.81
2019-03-15T07:43:27.205Z,955.79
2019-03-15T07:44:27.123Z,955.80
2019-03-15T07:45:27.109Z,955.86
2019-03-15T07:46:27.008Z,955.80
2019-03-15T07:47:27.066Z,955.83
2019-03-15T07:48:27.059Z,955.84
2019-03-15T07:49:26.841Z,955.80
2019-03-15T07:50:26.816Z,955.81
2019-03-15T07:51:26.726Z,955.82
2019-03-15T07:52:26.672Z,955.75
2019-03-15T07:53:26.657Z,955.74
2019-03-15T07:54:37.471Z,955.81
2019-03-15T07:55:26.502Z,955.79
2019-03-15T07:56:28.634Z,955.82
2019-03-15T07:57:26.390Z,955.84
2019-03-15T07:58:26.363Z,955.77
2019-03-15T07:59:27.896Z,955.76
2019-03-15T08:00:26.256Z,955.81
2019-03-15T08:01:26.160Z,955.80
2019-03-15T08:02:26.109Z,955.83
2019-03-15T08:03:26.046Z,955.86
2019-03-15T08:04:25.994Z,955.91
2019-03-15T08:05:25.969Z,955.74
2019-03-15T08:06:34.880Z,955.80
2019-03-15T08:07:35.845Z,955.85
2019-03-15T08:08:25.805Z,955.85
2019-03-15T08:09:25.709Z,955.84
2019-03-15T08:10:25.653Z,955.83
2019-03-15T08:11:25.596Z,955.80
2019-03-15T08:12:25.540Z,955.90
2019-03-15T08:13:25.514Z,956.05
2019-03-15T08:14:25.425Z,955.92
2019-03-15T08:15:25.373Z,956.03
2019-03-15T08:16:25.314Z,955.93
2019-03-15T08:17:25.288Z,955.90
2019-03-15T08:18:25.197Z,955.93
2019-03-15T08:19:25.174Z,955.95
2019-03-15T08:20:25.088Z,955.92
2019-03-15T08:21:25.031Z,955.90
2019-03-15T08:22:24.974Z,955.97
2019-03-15T08:23:24.916Z,955.99
2019-03-15T08:24:24.899Z,956.05
2019-03-15T08:25:24.806Z,956.01
2019-03-15T08:26:24.745Z,956.01
2019-03-15T08:27:24.689Z,956.05
2019-03-15T08:28:24.637Z,956.08
2019-03-15T08:29:24.615Z,955.99
2019-03-15T08:30:24.517Z,955.91
2019-03-15T08:31:24.465Z,955.93
2019-03-15T08:32:24.407Z,956.01
2019-03-15T08:33:24.346Z,955.96
2019-03-15T08:34:24.323Z,955.90
2019-03-15T08:35:24.790Z,955.91
2019-03-15T08:36:24.179Z,955.84
2019-03-15T08:37:24.126Z,955.92
2019-03-15T08:38:24.095Z,955.90
2019-03-15T08:39:24.006Z,955.89
2019-03-15T08:40:25.804Z,955.88
2019-03-15T08:41:23.895Z,955.91
2019-03-15T08:42:23.873Z,955.80
2019-03-15T08:43:23.778Z,955.87
2019-03-15T08:44:23.727Z,955.85
2019-03-15T08:45:23.698Z,955.81
2019-03-15T08:46:23.645Z,955.84
2019-03-15T08:47:23.554Z,955.79
2019-03-15T08:48:23.502Z,955.81
2019-03-15T08:49:23.441Z,955.75
2019-03-15T08:50:24.726Z,955.76
2019-03-15T08:51:23.324Z,955.72
2019-03-15T08:52:23.307Z,955.67
2019-03-15T08:53:23.218Z,955.71
2019-03-15T08:54:23.154Z,955.67
2019-03-15T08:55:23.128Z,955.70
2019-03-15T08:56:23.042Z,955.73
2019-03-15T08:57:22.983Z,955.70
2019-03-15T08:58:22.971Z,955.70
2019-03-15T08:59:22.969Z,955.70
2019-03-15T09:00:22.814Z,955.67
2019-03-15T09:01:23.985Z,955.67
2019-03-15T09:02:22.706Z,955.64
2019-03-15T09:03:27.918Z,955.61
2019-03-15T09:04:22.588Z,955.61
2019-03-15T09:05:22.535Z,955.60
2019-03-15T09:06:22.473Z,955.63
2019-03-15T09:07:22.420Z,955.66
2019-03-15T09:08:22.393Z,955.66
2019-03-15T09:09:22.314Z,955.60
2019-03-15T09:10:23.776Z,955.58
2019-03-15T09:11:22.195Z,955.52
2019-03-15T09:12:22.135Z,955.48
2019-03-15T09:13:22.110Z,955.46
2019-03-15T09:14:22.020Z,955.47
2019-03-15T09:15:21.963Z,955.56
2019-03-15T09:16:21.909Z,955.56
2019-03-15T09:17:21.961Z,955.56
2019-03-15T09:18:21.825Z,955.64
2019-03-15T09:19:21.738Z,955.59
2019-03-15T09:20:21.681Z,955.55
2019-03-15T09:21:21.623Z,955.58
2019-03-15T09:22:21.568Z,955.55
2019-03-15T09:23:21.542Z,955.57
2019-03-15T09:24:21.464Z,955.51
2019-03-15T09:25:21.429Z,955.50
2019-03-15T09:26:21.341Z,955.48
2019-03-15T09:27:21.292Z,955.45
2019-03-15T09:28:21.225Z,955.45
2019-03-15T09:29:21.205Z,955.44
2019-03-15T09:30:24.748Z,955.47
2019-03-15T09:31:21.062Z,955.45
2019-03-15T09:32:21.004Z,955.48
2019-03-15T09:33:20.946Z,955.43
2019-03-15T09:34:20.977Z,955.47
2019-03-15T09:35:20.864Z,955.48
2019-03-15T09:36:20.775Z,955.43
2019-03-15T09:37:20.719Z,955.38
2019-03-15T09:38:20.662Z,955.40
2019-03-15T09:39:20.610Z,955.34
2019-03-15T09:40:20.581Z,955.31
2019-03-15T09:41:30.897Z,955.34
2019-03-15T09:42:20.473Z,955.33
2019-03-15T09:43:20.378Z,955.37
2019-03-15T09:44:20.322Z,955.29
2019-03-15T09:45:20.269Z,955.28
2019-03-15T09:46:20.216Z,955.37
2019-03-15T09:47:20.185Z,955.27
2019-03-15T09:48:20.094Z,955.26
2019-03-15T09:49:20.042Z,955.27
2019-03-15T09:50:30.721Z,955.24
2019-03-15T09:51:19.928Z,955.23
2019-03-15T09:52:19.909Z,955.22
2019-03-15T09:53:19.814Z,955.18
2019-03-15T09:54:19.757Z,955.24
2019-03-15T09:55:32.170Z,955.19
2019-03-15T09:56:19.646Z,955.19
2019-03-15T09:57:19.626Z,955.24
2019-03-15T09:58:19.547Z,955.18
2019-03-15T09:59:19.639Z,955.09
2019-03-15T10:00:19.429Z,955.08
2019-03-15T10:01:34.343Z,955.03
2019-03-15T10:02:29.767Z,954.94
2019-03-15T10:03:22.357Z,954.95
2019-03-15T10:04:19.227Z,954.94
2019-03-15T10:05:19.137Z,954.96
2019-03-15T10:06:19.656Z,954.99
2019-03-15T10:07:19.110Z,954.93
2019-03-15T10:08:19.002Z,955.00
2019-03-15T10:09:18.914Z,954.97
2019-03-15T10:10:19.347Z,955.03
2019-03-15T10:11:18.832Z,955.01
2019-03-15T10:12:18.741Z,955.01
2019-03-15T10:13:18.690Z,955.02
2019-03-15T10:14:18.695Z,955.03
2019-03-15T10:15:18.573Z,955.07
2019-03-15T10:16:18.518Z,955.01
2019-03-15T10:17:18.464Z,955.04
2019-03-15T10:18:18.405Z,955.08
2019-03-15T10:19:18.379Z,955.00
2019-03-15T10:20:18.292Z,955.04
2019-03-15T10:21:18.236Z,955.06
2019-03-15T10:22:18.178Z,955.04
2019-03-15T10:23:18.127Z,954.99
2019-03-15T10:24:18.107Z,954.92
2019-03-15T10:25:18.044Z,954.95
2019-03-15T10:26:17.954Z,954.95
2019-03-15T10:27:17.899Z,954.96
2019-03-15T10:28:17.840Z,954.93
2019-03-15T10:29:19.659Z,954.96
2019-03-15T10:30:17.762Z,954.97
2019-03-15T10:31:17.673Z,954.92
2019-03-15T10:32:17.619Z,955.00
2019-03-15T10:33:17.563Z,954.96
2019-03-15T10:34:17.506Z,954.91
2019-03-15T10:35:17.481Z,954.97
2019-03-15T10:36:17.423Z,954.84
2019-03-15T10:37:17.341Z,954.82
2019-03-15T10:38:17.318Z,954.88
2019-03-15T10:39:17.224Z,954.78
2019-03-15T10:40:17.179Z,954.81
2019-03-15T10:41:17.111Z,954.82
2019-03-15T10:42:17.056Z,954.83
2019-03-15T10:43:17.034Z,954.83
2019-03-15T10:44:16.945Z,954.82
2019-03-15T10:45:16.894Z,954.75
2019-03-15T10:46:16.831Z,954.73
2019-03-15T10:47:16.780Z,954.69
2019-03-15T10:48:25.037Z,954.72
2019-03-15T10:49:16.671Z,954.72
2019-03-15T10:50:16.619Z,954.73
2019-03-15T10:51:16.554Z,954.70
2019-03-15T10:52:16.496Z,954.72
2019-03-15T10:53:16.473Z,954.69
2019-03-15T10:54:16.387Z,954.68
2019-03-15T10:55:16.331Z,954.72
2019-03-15T10:56:16.310Z,954.67
2019-03-15T10:57:16.220Z,954.71
2019-03-15T10:58:16.168Z,954.68
2019-03-15T10:59:16.109Z,954.64
2019-03-15T11:00:16.051Z,954.60
2019-03-15T11:01:16.036Z,954.68
2019-03-15T11:02:15.939Z,954.54
2019-03-15T11:03:15.882Z,954.62
2019-03-15T11:04:15.829Z,954.56
2019-03-15T11:05:15.774Z,954.60
2019-03-15T11:06:15.767Z,954.62
2019-03-15T11:07:15.663Z,954.59
2019-03-15T11:08:15.613Z,954.59
2019-03-15T11:09:15.578Z,954.67
2019-03-15T11:10:15.495Z,954.64
2019-03-15T11:11:15.474Z,954.56
2019-03-15T11:12:15.418Z,954.67
2019-03-15T11:13:15.330Z,954.71
2019-03-15T11:14:15.275Z,954.66
2019-03-15T11:15:15.218Z,954.59
2019-03-15T11:16:15.170Z,954.53
2019-03-15T11:17:15.139Z,954.65
2019-03-15T11:18:15.050Z,954.55
2019-03-15T11:19:15.792Z,954.60
2019-03-15T11:20:14.945Z,954.59
2019-03-15T11:21:14.887Z,954.57
2019-03-15T11:22:14.832Z,954.54
2019-03-15T11:23:14.784Z,954.48
2019-03-15T11:24:14.776Z,954.47
2019-03-15T11:25:14.667Z,954.52
2019-03-15T11:26:14.607Z,954.59
2019-03-15T11:27:14.557Z,954.54
2019-03-15T11:28:14.498Z,954.62
2019-03-15T11:29:14.485Z,954.60
2019-03-15T11:30:14.396Z,954.54
2019-03-15T11:31:14.329Z,954.61
2019-03-15T11:32:14.275Z,954.58
2019-03-15T11:33:14.221Z,954.66
2019-03-15T11:34:14.249Z,954.59
2019-03-15T11:35:14.114Z,954.61
2019-03-15T11:36:14.057Z,954.68
2019-03-15T11:37:14.001Z,954.57
2019-03-15T11:38:13.946Z,954.61
2019-03-15T11:39:13.925Z,954.65
2019-03-15T11:40:14.525Z,954.60
2019-03-15T11:41:13.787Z,954.51
2019-03-15T11:42:14.981Z,954.62
2019-03-15T11:43:13.709Z,954.64
2019-03-15T11:44:13.623Z,954.59
2019-03-15T11:45:13.564Z,954.65
2019-03-15T11:46:16.393Z,954.64
2019-03-15T11:47:13.533Z,954.71
2019-03-15T11:48:13.403Z,954.67
2019-03-15T11:49:13.342Z,954.65
2019-03-15T11:50:13.286Z,954.61
2019-03-15T11:51:13.231Z,954.61
2019-03-15T11:52:13.211Z,954.57
2019-03-15T11:53:13.124Z,954.57
2019-03-15T11:54:13.067Z,954.53
2019-03-15T11:55:13.014Z,954.53
2019-03-15T11:56:26.183Z,954.46
2019-03-15T11:57:12.903Z,954.55
2019-03-15T11:58:12.882Z,954.49
2019-03-15T11:59:12.797Z,954.54
2019-03-15T12:00:12.765Z,954.57
2019-03-15T12:01:12.727Z,954.48
2019-03-15T12:02:12.632Z,954.57
2019-03-15T12:03:12.585Z,954.52
2019-03-15T12:04:12.529Z,954.67
2019-03-15T12:05:12.499Z,954.55
2019-03-15T12:06:12.412Z,954.52
2019-03-15T12:07:12.356Z,954.53
2019-03-15T12:08:12.340Z,954.59
2019-03-15T12:09:12.250Z,954.49
2019-03-15T12:10:12.194Z,954.52
2019-03-15T12:11:12.167Z,954.57
2019-03-15T12:12:12.087Z,954.36
2019-03-15T12:13:12.031Z,954.53
2019-03-15T12:14:11.975Z,954.43
2019-03-15T12:15:11.959Z,954.48
2019-03-15T12:16:11.866Z,954.50
2019-03-15T12:17:11.813Z,954.50
2019-03-15T12:18:11.758Z,954.53
2019-03-15T12:19:11.700Z,954.46
2019-03-15T12:20:11.679Z,954.48
2019-03-15T12:21:11.596Z,954.51
2019-03-15T12:22:11.537Z,954.49
2019-03-15T12:23:11.516Z,954.46
2019-03-15T12:24:11.435Z,954.52
2019-03-15T12:25:11.408Z,954.46
2019-03-15T12:26:11.324Z,954.54
2019-03-15T12:27:11.265Z,954.48
2019-03-15T12:28:11.211Z,954.55